createdAt,value
2022-11-29T00:00:47.071Z,9.20
2022-11-29T00:03:15.786Z,9.30
2022-11-29T00:05:51.762Z,9.30
2022-11-29T00:08:21.700Z,9.30
2022-11-29T00:10:50.161Z,9.30
2022-11-29T00:13:24.680Z,9.30
2022-11-29T00:15:59.331Z,9.30
2022-11-29T00:18:34.877Z,9.30
2022-11-29T00:21:09.463Z,9.30
2022-11-29T00:23:49.846Z,9.30
2022-11-29T00:26:21.724Z,9.30
2022-11-29T00:28:54.948Z,9.40
2022-11-29T00:31:32.805Z,9.30
2022-11-29T00:34:02.009Z,9.30
2022-11-29T00:36:33.203Z,9.30
2022-11-29T00:39:01.611Z,9.30
2022-11-29T00:41:29.916Z,9.30
2022-11-29T00:44:00.986Z,9.30
2022-11-29T00:46:36.241Z,9.30
2022-11-29T00:49:05.997Z,9.30
2022-11-29T00:51:49.328Z,9.30
2022-11-29T00:54:19.585Z,9.30
2022-11-29T00:56:58.355Z,9.30
2022-11-29T00:59:36.207Z,9.20
2022-11-29T01:02:10.123Z,9.20
2022-11-29T01:04:42.319Z,9.20
2022-11-29T01:07:12.295Z,9.20
2022-11-29T01:09:47.308Z,9.20
2022-11-29T01:12:16.332Z,9.20
2022-11-29T01:14:51.994Z,9.20
2022-11-29T01:17:24.807Z,9.20
2022-11-29T01:19:53.194Z,9.20
2022-11-29T01:22:21.816Z,9.30
2022-11-29T01:24:51.882Z,9.30
2022-11-29T01:27:33.583Z,9.30
2022-11-29T01:30:04.518Z,9.30
2022-11-29T01:32:38.910Z,9.30
2022-11-29T01:35:17.418Z,9.30
2022-11-29T01:37:47.592Z,9.20
2022-11-29T01:40:16.264Z,9.20
2022-11-29T01:42:46.448Z,9.20
2022-11-29T01:45:26.321Z,9.20
2022-11-29T01:47:59.156Z,9.20
2022-11-29T01:50:31.823Z,9.20
2022-11-29T01:53:05.592Z,9.20
2022-11-29T01:55:38.899Z,9.20
2022-11-29T01:58:10.420Z,9.20
2022-11-29T02:00:44.872Z,9.20
2022-11-29T02:03:21.010Z,9.20
2022-11-29T02:05:54.248Z,9.20
2022-11-29T02:08:28.558Z,9.20
2022-11-29T02:11:06.902Z,9.20
2022-11-29T02:13:39.521Z,9.20
2022-11-29T02:16:20.524Z,9.20
2022-11-29T02:19:01.065Z,9.10
2022-11-29T02:21:35.720Z,9.10
2022-11-29T02:24:38.701Z,9.10
2022-11-29T02:27:58.972Z,9.10
2022-11-29T02:30:45.291Z,9.10
2022-11-29T02:33:46.649Z,9.00
2022-11-29T02:36:34.785Z,9.00
2022-11-29T02:39:40.328Z,9.00
2022-11-29T02:42:27.056Z,9.00
2022-11-29T02:45:07.411Z,8.90
2022-11-29T02:47:46.236Z,8.90
2022-11-29T02:50:33.628Z,9.00
2022-11-29T02:53:06.775Z,9.00
2022-11-29T02:55:51.323Z,8.90
2022-11-29T02:58:29.553Z,8.90
2022-11-29T03:01:02.004Z,8.90
2022-11-29T03:03:48.232Z,8.90
2022-11-29T03:06:29.314Z,8.90
2022-11-29T03:09:23.490Z,8.90
2022-11-29T03:12:08.336Z,8.90
2022-11-29T03:14:57.637Z,8.80
2022-11-29T03:17:41.734Z,8.80
2022-11-29T03:20:29.461Z,8.80
2022-11-29T03:23:16.171Z,8.80
2022-11-29T03:25:52.482Z,8.80
2022-11-29T03:28:38.504Z,8.70
2022-11-29T03:31:34.801Z,8.70
2022-11-29T03:34:09.386Z,8.70
2022-11-29T03:36:46.769Z,8.60
2022-11-29T03:39:47.695Z,8.60
2022-11-29T03:42:26.456Z,8.60
2022-11-29T03:45:02.077Z,8.60
2022-11-29T03:47:44.819Z,8.60
2022-11-29T03:50:17.946Z,8.70
2022-11-29T03:52:56.629Z,8.70
2022-11-29T03:56:00.513Z,8.60
2022-11-29T03:59:17.638Z,8.60
2022-11-29T04:02:07.578Z,8.60
2022-11-29T04:05:15.791Z,8.50
2022-11-29T04:08:12.877Z,8.50
2022-11-29T04:11:24.981Z,8.40
2022-11-29T04:14:05.834Z,8.30
2022-11-29T04:17:13.813Z,8.30
2022-11-29T04:20:06.214Z,8.40
2022-11-29T04:23:02.107Z,8.30
2022-11-29T04:25:51.061Z,8.30
2022-11-29T04:28:55.264Z,8.20
2022-11-29T04:31:51.208Z,8.20
2022-11-29T04:34:31.037Z,8.20
2022-11-29T04:37:12.013Z,8.20
2022-11-29T04:40:07.434Z,8.20
2022-11-29T04:42:53.408Z,8.20
2022-11-29T04:46:05.885Z,8.10
2022-11-29T04:49:35.870Z,8.10
2022-11-29T04:52:37.208Z,8.00
2022-11-29T04:55:23.738Z,8.00
2022-11-29T04:58:01.518Z,8.00
2022-11-29T05:00:31.260Z,8.00
2022-11-29T05:03:13.060Z,8.00
2022-11-29T05:05:50.601Z,8.00
2022-11-29T05:08:30.373Z,8.00
2022-11-29T05:11:05.408Z,8.00
2022-11-29T05:13:49.859Z,8.00
2022-11-29T05:16:33.699Z,8.00
2022-11-29T05:19:36.718Z,8.00
2022-11-29T05:22:14.572Z,7.90
2022-11-29T05:25:08.218Z,7.90
2022-11-29T05:27:49.253Z,7.90
2022-11-29T05:31:04.080Z,7.90
2022-11-29T05:33:58.344Z,7.90
2022-11-29T05:36:55.655Z,7.90
2022-11-29T05:39:35.419Z,7.90
2022-11-29T05:42:23.848Z,8.00
2022-11-29T05:44:56.514Z,8.00
2022-11-29T05:47:53.240Z,8.00
2022-11-29T05:50:36.226Z,8.00
2022-11-29T05:53:28.737Z,8.00
2022-11-29T05:56:31.718Z,8.00
2022-11-29T05:59:44.661Z,8.00
2022-11-29T06:03:08.952Z,8.00
2022-11-29T06:05:56.845Z,7.90
2022-11-29T06:08:44.065Z,7.80
2022-11-29T06:11:21.244Z,7.80
2022-11-29T06:14:02.748Z,7.80
2022-11-29T06:17:05.947Z,7.90
2022-11-29T06:19:49.455Z,7.90
2022-11-29T06:22:40.434Z,7.90
2022-11-29T06:25:22.924Z,7.80
2022-11-29T06:28:21.548Z,7.80
2022-11-29T06:30:59.659Z,7.80
2022-11-29T06:33:34.963Z,7.80
2022-11-29T06:36:13.509Z,7.80
2022-11-29T06:38:45.042Z,7.80
2022-11-29T06:41:26.650Z,7.90
2022-11-29T06:44:06.353Z,7.90
2022-11-29T06:46:45.953Z,7.80
2022-11-29T06:49:26.497Z,7.80
2022-11-29T06:52:02.588Z,7.80
2022-11-29T06:54:40.746Z,7.80
2022-11-29T06:57:13.541Z,7.80
2022-11-29T06:59:52.009Z,7.80
2022-11-29T07:02:38.656Z,7.80
2022-11-29T07:05:15.384Z,7.90
2022-11-29T07:07:51.189Z,7.80
2022-11-29T07:10:21.520Z,7.80
2022-11-29T07:12:50.814Z,7.80
2022-11-29T07:15:28.294Z,7.80
2022-11-29T07:18:18.458Z,7.80
2022-11-29T07:21:10.199Z,7.80
2022-11-29T07:23:51.189Z,7.80
2022-11-29T07:26:26.253Z,7.80
2022-11-29T07:29:03.049Z,7.70
2022-11-29T07:31:40.949Z,7.80
2022-11-29T07:34:12.799Z,7.80
2022-11-29T07:36:46.708Z,7.80
2022-11-29T07:39:25.208Z,7.80
2022-11-29T07:42:04.309Z,7.80
2022-11-29T07:44:39.217Z,7.80
2022-11-29T07:47:09.725Z,7.80
2022-11-29T07:49:40.225Z,7.80
2022-11-29T07:52:18.418Z,7.80
2022-11-29T07:54:52.515Z,7.80
2022-11-29T07:57:38.241Z,7.80
2022-11-29T08:00:07.877Z,7.80
2022-11-29T08:02:38.001Z,7.80
2022-11-29T08:05:07.121Z,7.80
2022-11-29T08:07:49.857Z,7.80
2022-11-29T08:10:32.666Z,7.80
2022-11-29T08:13:09.890Z,7.80
2022-11-29T08:15:38.180Z,7.70
2022-11-29T08:18:06.824Z,7.80
2022-11-29T08:20:36.342Z,7.70
2022-11-29T08:23:07.620Z,7.70
2022-11-29T08:25:42.506Z,7.70
2022-11-29T08:28:11.099Z,7.70
2022-11-29T08:30:40.295Z,7.70
2022-11-29T08:33:18.180Z,7.70
2022-11-29T08:35:51.274Z,7.70
2022-11-29T08:38:22.671Z,7.70
2022-11-29T08:40:51.037Z,7.70
2022-11-29T08:43:22.395Z,7.70
2022-11-29T08:46:01.568Z,7.60
2022-11-29T08:48:32.993Z,7.60
2022-11-29T08:51:01.270Z,7.60
2022-11-29T08:53:43.140Z,7.70
2022-11-29T08:56:59.576Z,7.70
2022-11-29T08:59:02.241Z,7.60
2022-11-29T09:01:30.581Z,7.50
2022-11-29T09:04:05.612Z,7.60
2022-11-29T09:06:35.877Z,7.60
2022-11-29T09:09:12.335Z,7.60
2022-11-29T09:11:53.589Z,7.60
2022-11-29T09:14:27.520Z,7.60
2022-11-29T09:17:01.228Z,7.60
2022-11-29T09:19:31.901Z,7.60
2022-11-29T09:22:06.234Z,7.60
2022-11-29T09:24:43.824Z,7.60
2022-11-29T09:27:19.060Z,7.70
2022-11-29T09:29:50.621Z,7.70
2022-11-29T09:32:31.242Z,7.70
2022-11-29T09:35:04.778Z,7.80
2022-11-29T09:37:44.588Z,7.80
2022-11-29T09:40:27.368Z,7.80
2022-11-29T09:43:03.233Z,7.90
2022-11-29T09:45:33.005Z,7.90
2022-11-29T09:48:42.657Z,7.90
2022-11-29T09:51:17.351Z,7.90
2022-11-29T09:53:52.684Z,7.90
2022-11-29T09:56:28.411Z,7.90
2022-11-29T09:59:10.082Z,8.00
2022-11-29T10:01:49.578Z,8.00
2022-11-29T10:04:25.025Z,8.10
2022-11-29T10:06:57.784Z,8.20
2022-11-29T10:09:33.921Z,8.20
2022-11-29T10:12:28.171Z,8.20
2022-11-29T10:15:01.242Z,8.30
2022-11-29T10:17:37.998Z,8.30
2022-11-29T10:20:10.669Z,8.40
2022-11-29T10:22:43.126Z,8.50
2022-11-29T10:25:14.987Z,8.50
2022-11-29T10:28:02.589Z,8.50
2022-11-29T10:30:33.256Z,8.60
2022-11-29T10:33:12.251Z,8.60
2022-11-29T10:35:41.154Z,8.70
2022-11-29T10:38:30.894Z,8.80
2022-11-29T10:41:05.607Z,8.90
2022-11-29T10:43:38.007Z,8.90
2022-11-29T10:46:12.865Z,8.90
2022-11-29T10:48:48.427Z,8.80
2022-11-29T10:51:17.663Z,8.80
2022-11-29T10:53:48.529Z,8.80
2022-11-29T10:56:24.315Z,8.80
2022-11-29T10:59:03.370Z,8.80
2022-11-29T11:01:38.633Z,8.90
2022-11-29T11:04:29.132Z,8.90
2022-11-29T11:07:00.111Z,9.00
2022-11-29T11:09:46.521Z,9.00
2022-11-29T11:12:31.751Z,9.00
2022-11-29T11:15:25.186Z,9.10
2022-11-29T11:18:07.050Z,9.20
2022-11-29T11:20:40.829Z,9.40
2022-11-29T11:23:28.416Z,9.40
2022-11-29T11:26:09.649Z,9.50
2022-11-29T11:28:42.615Z,9.50
2022-11-29T11:31:23.909Z,9.50
2022-11-29T11:34:03.370Z,9.60
2022-11-29T11:36:38.630Z,9.60
2022-11-29T11:39:20.298Z,9.60
2022-11-29T11:42:14.537Z,9.70
2022-11-29T11:44:54.519Z,9.70
2022-11-29T11:47:35.828Z,9.70
2022-11-29T11:50:21.050Z,9.70
2022-11-29T11:52:59.381Z,9.60
2022-11-29T11:55:38.317Z,9.50
2022-11-29T11:58:28.011Z,9.50
2022-11-29T12:01:04.728Z,9.50
2022-11-29T12:04:16.531Z,9.50
2022-11-29T12:07:03.075Z,9.50
2022-11-29T12:09:47.796Z,9.50
2022-11-29T12:12:24.088Z,9.50
2022-11-29T12:14:59.043Z,9.50
2022-11-29T12:17:46.396Z,9.50
2022-11-29T12:20:39.310Z,9.50
2022-11-29T12:23:33.368Z,9.60
2022-11-29T12:26:55.370Z,9.60
2022-11-29T12:29:42.236Z,9.60
2022-11-29T12:32:47.573Z,9.60
2022-11-29T12:35:59.669Z,9.50
2022-11-29T12:38:50.749Z,9.60
2022-11-29T12:41:43.397Z,9.60
2022-11-29T12:44:51.406Z,9.70
2022-11-29T12:47:50.337Z,9.80
2022-11-29T12:50:36.799Z,9.80
2022-11-29T12:53:26.969Z,9.80
2022-11-29T12:56:07.951Z,9.80
2022-11-29T12:58:53.067Z,9.70
2022-11-29T13:01:50.982Z,9.80
2022-11-29T13:04:36.443Z,9.80
2022-11-29T13:07:29.288Z,9.80
2022-11-29T13:10:45.157Z,9.80
2022-11-29T13:13:37.297Z,9.90
2022-11-29T13:16:31.073Z,9.90
2022-11-29T13:19:06.665Z,9.90
2022-11-29T13:21:55.645Z,10.00
2022-11-29T13:24:50.500Z,10.00
2022-11-29T13:27:33.855Z,10.00
2022-11-29T13:30:21.588Z,10.00
2022-11-29T13:36:13.382Z,10.00
2022-11-29T13:38:54.853Z,10.00
2022-11-29T13:41:37.158Z,10.10
2022-11-29T13:44:19.862Z,10.10
2022-11-29T13:47:03.746Z,10.10
2022-11-29T13:50:00.596Z,10.10
2022-11-29T13:52:54.659Z,10.10
2022-11-29T13:55:43.490Z,10.10
2022-11-29T13:58:56.836Z,10.10
2022-11-29T14:01:30.901Z,10.10
2022-11-29T14:04:19.601Z,10.10
2022-11-29T14:06:58.988Z,10.20
2022-11-29T14:09:36.283Z,10.20
2022-11-29T14:12:26.407Z,10.20
2022-11-29T14:15:07.865Z,10.30
2022-11-29T14:17:52.607Z,10.30
2022-11-29T14:20:49.251Z,10.40
2022-11-29T14:23:54.580Z,10.40
2022-11-29T14:26:50.080Z,10.50
2022-11-29T14:31:28.115Z,10.60
2022-11-29T14:33:27.693Z,10.60
2022-11-29T14:37:27.297Z,10.50
2022-11-29T14:39:54.665Z,10.50
2022-11-29T14:42:29.248Z,10.40
2022-11-29T14:45:00.931Z,10.30
2022-11-29T14:47:57.329Z,10.30
2022-11-29T14:50:40.329Z,10.20
2022-11-29T14:53:09.111Z,10.10
2022-11-29T14:55:44.965Z,10.10
2022-11-29T14:58:25.934Z,10.00
2022-11-29T15:01:18.647Z,9.90
2022-11-29T15:03:56.401Z,9.80
2022-11-29T15:06:53.019Z,9.80
2022-11-29T15:09:31.577Z,9.70
2022-11-29T15:12:11.508Z,9.60
2022-11-29T15:14:52.046Z,9.60
2022-11-29T15:17:54.670Z,9.50
2022-11-29T15:21:28.662Z,9.50
2022-11-29T15:24:36.459Z,9.40
2022-11-29T15:28:02.966Z,9.40
2022-11-29T15:30:52.892Z,9.30
2022-11-29T15:34:05.826Z,9.20
2022-11-29T15:36:44.821Z,9.10
2022-11-29T15:39:59.990Z,9.10
2022-11-29T15:43:03.358Z,9.00
2022-11-29T15:45:37.501Z,8.90
2022-11-29T15:48:13.907Z,8.80
2022-11-29T15:50:48.321Z,8.80
2022-11-29T15:53:18.816Z,8.70
2022-11-29T15:55:50.521Z,8.60
2022-11-29T15:58:18.876Z,8.60
2022-11-29T16:00:49.940Z,8.50
2022-11-29T16:03:31.698Z,8.50
2022-11-29T16:06:23.860Z,8.50
2022-11-29T16:08:52.248Z,8.40
2022-11-29T16:11:22.902Z,8.40
2022-11-29T16:14:04.949Z,8.30
2022-11-29T16:16:36.352Z,8.30
2022-11-29T16:19:12.444Z,8.20
2022-11-29T16:21:46.312Z,8.10
2022-11-29T16:24:15.685Z,8.00
2022-11-29T16:26:46.756Z,8.00
2022-11-29T16:29:24.629Z,7.90
2022-11-29T16:31:53.518Z,7.90
2022-11-29T16:34:29.998Z,7.90
2022-11-29T16:37:13.960Z,7.80
2022-11-29T16:39:42.317Z,7.80
2022-11-29T16:42:25.781Z,7.70
2022-11-29T16:45:38.614Z,7.60
2022-11-29T16:48:28.819Z,7.60
2022-11-29T16:51:19.099Z,7.50
2022-11-29T16:53:49.936Z,7.50
2022-11-29T16:56:26.161Z,7.40
2022-11-29T16:59:20.727Z,7.40
2022-11-29T17:01:58.645Z,7.30
2022-11-29T17:04:27.047Z,7.30
2022-11-29T17:06:55.893Z,7.30
2022-11-29T17:09:28.794Z,7.30
2022-11-29T17:11:59.986Z,7.30
2022-11-29T17:14:35.226Z,7.20
2022-11-29T17:17:03.718Z,7.20
2022-11-29T17:19:32.087Z,7.10
2022-11-29T17:22:00.510Z,7.10
2022-11-29T17:27:18.323Z,7.10
2022-11-29T19:06:52.277Z,7.90
2022-11-29T19:09:22.138Z,8.00
2022-11-29T19:11:53.653Z,8.00
2022-11-29T19:14:26.423Z,7.90
2022-11-29T19:17:03.776Z,8.00
2022-11-29T19:19:32.542Z,8.00
2022-11-29T19:22:04.123Z,8.00
2022-11-29T19:24:33.178Z,8.00
2022-11-29T19:27:04.757Z,8.00
2022-11-29T19:29:39.393Z,8.00
2022-11-29T19:32:10.576Z,8.00
2022-11-29T19:34:38.803Z,8.00
2022-11-29T19:37:11.723Z,8.10
2022-11-29T19:39:43.409Z,8.10
2022-11-29T19:42:11.832Z,8.10
2022-11-29T19:45:14.973Z,8.10
2022-11-29T19:47:30.377Z,8.10
2022-11-29T19:50:02.348Z,8.20
2022-11-29T19:52:34.747Z,8.20
2022-11-29T19:55:02.963Z,8.10
2022-11-29T19:57:34.556Z,8.10
2022-11-29T20:00:03.060Z,8.10
2022-11-29T20:02:31.791Z,8.10
2022-11-29T20:05:00.275Z,8.10
2022-11-29T20:07:28.413Z,8.10
2022-11-29T20:09:57.977Z,8.10
2022-11-29T20:12:26.353Z,8.10
2022-11-29T20:14:54.583Z,8.10
2022-11-29T20:17:25.291Z,8.10
2022-11-29T20:19:54.364Z,8.10
2022-11-29T20:22:23.882Z,8.10
2022-11-29T20:24:54.747Z,8.10
2022-11-29T20:27:34.263Z,8.10
2022-11-29T20:30:02.577Z,8.00
2022-11-29T20:32:39.962Z,8.10
2022-11-29T20:35:10.172Z,8.10
2022-11-29T20:38:15.758Z,8.10
2022-11-29T20:40:50.226Z,8.20
2022-11-29T20:43:21.378Z,8.20
2022-11-29T20:45:50.897Z,8.20
2022-11-29T20:48:21.582Z,8.20
2022-11-29T20:50:54.235Z,8.20
2022-11-29T20:53:37.621Z,8.30
2022-11-29T20:56:06.183Z,8.30
2022-11-29T20:58:36.884Z,8.30
2022-11-29T21:01:05.241Z,8.40
2022-11-29T21:03:58.979Z,8.40
2022-11-29T21:06:32.051Z,8.40
2022-11-29T21:09:09.188Z,8.50
2022-11-29T21:11:53.206Z,8.40
2022-11-29T21:14:26.378Z,8.40
2022-11-29T21:16:58.009Z,8.50
2022-11-29T21:19:27.442Z,8.50
2022-11-29T21:22:02.925Z,8.50
2022-11-29T21:24:36.555Z,8.50
2022-11-29T21:27:10.260Z,8.50
2022-11-29T21:29:43.732Z,8.50
2022-11-29T21:32:19.445Z,8.50
2022-11-29T21:34:47.864Z,8.50
2022-11-29T21:37:17.802Z,8.50
2022-11-29T21:39:45.987Z,8.50
2022-11-29T21:42:14.380Z,8.50
2022-11-29T21:44:44.280Z,8.50
2022-11-29T21:47:13.106Z,8.50
2022-11-29T21:49:41.925Z,8.50
2022-11-29T21:52:10.200Z,8.50
2022-11-29T21:54:38.474Z,8.50
2022-11-29T21:57:06.779Z,8.50
2022-11-29T21:59:40.703Z,8.50
2022-11-29T22:02:10.666Z,8.50
2022-11-29T22:04:39.113Z,8.50
2022-11-29T22:07:07.387Z,8.40
2022-11-29T22:09:35.589Z,8.40
2022-11-29T22:12:25.718Z,8.40
2022-11-29T22:14:53.330Z,8.50
2022-11-29T22:17:23.011Z,8.40
2022-11-29T22:19:51.269Z,8.50
2022-11-29T22:22:20.590Z,8.40
2022-11-29T22:24:49.086Z,8.50
2022-11-29T22:27:18.683Z,8.50
2022-11-29T22:29:47.061Z,8.50
2022-11-29T22:32:15.203Z,8.50
2022-11-29T22:34:48.371Z,8.50
2022-11-29T22:37:16.792Z,8.50
2022-11-29T22:39:45.162Z,8.50
2022-11-29T22:42:13.267Z,8.50
2022-11-29T22:44:44.207Z,8.50
2022-11-29T22:47:15.730Z,8.50
2022-11-29T22:49:45.446Z,8.50
2022-11-29T22:52:13.731Z,8.40
2022-11-29T22:54:45.815Z,8.40
2022-11-29T22:57:16.919Z,8.40
2022-11-29T22:59:45.508Z,8.40
2022-11-29T23:02:14.217Z,8.40
2022-11-29T23:04:51.481Z,8.50
2022-11-29T23:07:21.165Z,8.40
2022-11-29T23:09:49.514Z,8.40
2022-11-29T23:12:18.053Z,8.40
2022-11-29T23:17:28.443Z,8.40
2022-11-29T23:19:56.668Z,8.30
2022-11-29T23:22:26.536Z,8.30
2022-11-29T23:24:54.749Z,8.30
2022-11-29T23:27:22.930Z,8.30
2022-11-29T23:29:51.143Z,8.30
2022-11-29T23:32:24.616Z,8.30
2022-11-29T23:34:52.786Z,8.30
2022-11-29T23:37:21.204Z,8.40
2022-11-29T23:39:52.200Z,8.40
2022-11-29T23:42:27.682Z,8.40
2022-11-29T23:44:57.085Z,8.40
2022-11-29T23:47:27.098Z,8.40
2022-11-29T23:49:55.407Z,8.50
2022-11-29T23:52:23.666Z,8.40
2022-11-29T23:54:53.325Z,8.50
2022-11-29T23:57:24.004Z,8.50
2022-11-29T23:59:52.259Z,8.50
